createdAt,value
2023-03-13T00:00:29.377Z,38.00
2023-03-13T00:03:02.593Z,38.20
2023-03-13T00:05:38.429Z,39.00
2023-03-13T00:08:09.513Z,39.10
2023-03-13T00:10:40.687Z,39.10
2023-03-13T00:13:12.092Z,39.00
2023-03-13T00:15:45.733Z,39.40
2023-03-13T00:18:16.544Z,39.00
2023-03-13T00:20:50.667Z,39.20
2023-03-13T00:23:21.400Z,39.40
2023-03-13T00:25:58.313Z,39.20
2023-03-13T00:28:32.760Z,40.20
2023-03-13T00:31:05.850Z,39.70
2023-03-13T00:33:36.957Z,39.60
2023-03-13T00:36:12.628Z,40.30
2023-03-13T00:38:43.877Z,41.20
2023-03-13T00:41:19.843Z,41.50
2023-03-13T00:43:51.767Z,43.10
2023-03-13T00:46:24.497Z,43.20
2023-03-13T00:48:56.048Z,44.80
2023-03-13T00:51:37.373Z,45.60
2023-03-13T00:54:09.591Z,47.20
2023-03-13T00:56:40.282Z,49.50
2023-03-13T00:59:11.041Z,50.20
2023-03-13T01:01:41.742Z,51.50
2023-03-13T01:04:14.654Z,53.00
2023-03-13T01:06:48.150Z,53.00
2023-03-13T01:09:19.918Z,55.40
2023-03-13T01:11:50.615Z,57.90
2023-03-13T01:14:24.788Z,60.60
2023-03-13T01:16:57.954Z,63.40
2023-03-13T01:19:28.805Z,67.30
2023-03-13T01:22:02.107Z,70.60
2023-03-13T01:24:33.026Z,71.40
2023-03-13T01:27:03.830Z,73.90
2023-03-13T01:29:34.548Z,77.00
2023-03-13T01:32:05.237Z,78.60
2023-03-13T01:34:36.130Z,80.00
2023-03-13T01:37:11.265Z,82.80
2023-03-13T01:39:41.973Z,83.70
2023-03-13T01:42:14.455Z,86.40
2023-03-13T01:44:53.969Z,88.80
2023-03-13T01:47:25.331Z,89.10
2023-03-13T01:49:56.520Z,92.30
2023-03-13T01:52:33.353Z,92.30
2023-03-13T01:55:08.329Z,99.90
2023-03-13T01:57:43.742Z,99.90
2023-03-13T02:00:18.098Z,99.90
2023-03-13T02:02:53.239Z,99.90
2023-03-13T02:05:27.047Z,99.90
2023-03-13T02:08:03.726Z,99.90
2023-03-13T02:10:36.801Z,99.90
2023-03-13T02:13:07.732Z,99.90
2023-03-13T02:15:38.547Z,99.90
2023-03-13T02:18:09.302Z,99.90
2023-03-13T02:20:42.015Z,99.90
2023-03-13T02:23:21.916Z,99.90
2023-03-13T02:25:59.233Z,99.90
2023-03-13T02:28:34.266Z,99.90
2023-03-13T02:31:05.115Z,99.90
2023-03-13T02:33:40.683Z,99.90
2023-03-13T02:36:12.269Z,99.90
2023-03-13T02:38:50.902Z,99.90
2023-03-13T02:41:25.775Z,99.90
2023-03-13T02:43:56.659Z,99.90
2023-03-13T02:46:27.533Z,99.90
2023-03-13T02:49:00.163Z,99.90
2023-03-13T02:51:33.999Z,99.90
2023-03-13T02:54:09.186Z,99.90
2023-03-13T02:56:44.977Z,99.90
2023-03-13T02:59:15.694Z,99.90
2023-03-13T03:01:46.516Z,99.90
2023-03-13T03:04:17.277Z,99.90
2023-03-13T03:06:51.703Z,99.90
2023-03-13T03:09:25.613Z,99.90
2023-03-13T03:11:59.229Z,99.90
2023-03-13T03:14:30.029Z,99.90
2023-03-13T03:17:01.025Z,99.90
2023-03-13T03:19:31.704Z,99.90
2023-03-13T03:22:02.475Z,99.90
2023-03-13T03:24:33.275Z,99.90
2023-03-13T03:27:08.809Z,99.90
2023-03-13T03:29:39.575Z,99.90
2023-03-13T03:32:10.646Z,99.90
2023-03-13T03:34:41.421Z,99.90
2023-03-13T03:37:12.316Z,99.90
2023-03-13T03:39:43.174Z,99.90
2023-03-13T03:42:16.477Z,99.90
2023-03-13T03:44:47.171Z,99.90
2023-03-13T03:47:18.031Z,99.90
2023-03-13T03:49:50.211Z,99.90
2023-03-13T03:52:21.126Z,99.90
2023-03-13T03:54:51.860Z,99.90
2023-03-13T03:57:25.245Z,99.90
2023-03-13T03:59:56.079Z,99.90
2023-03-13T04:02:29.557Z,99.90
2023-03-13T04:05:00.340Z,99.90
2023-03-13T04:07:31.360Z,99.90
2023-03-13T04:10:02.478Z,99.90
2023-03-13T04:12:35.790Z,99.90
2023-03-13T04:15:07.128Z,99.90
2023-03-13T04:17:40.690Z,99.90
2023-03-13T04:20:16.011Z,99.90
2023-03-13T04:22:47.039Z,99.90
2023-03-13T04:25:17.850Z,99.90
2023-03-13T04:27:51.391Z,99.90
2023-03-13T04:30:22.363Z,99.90
2023-03-13T04:32:53.702Z,99.90
2023-03-13T04:35:24.595Z,99.90
2023-03-13T04:37:55.623Z,99.90
2023-03-13T04:40:26.385Z,99.90
2023-03-13T04:42:59.661Z,99.90
2023-03-13T04:45:30.691Z,99.90
2023-03-13T04:48:01.489Z,99.90
2023-03-13T04:50:32.288Z,99.90
2023-03-13T04:53:05.667Z,99.90
2023-03-13T04:55:36.460Z,99.90
2023-03-13T04:58:10.093Z,99.90
2023-03-13T05:00:43.292Z,99.90
2023-03-13T05:03:14.312Z,99.90
2023-03-13T05:05:45.093Z,99.90
2023-03-13T05:08:15.851Z,99.90
2023-03-13T05:10:46.964Z,99.90
2023-03-13T05:13:20.358Z,99.90
2023-03-13T05:15:51.161Z,99.90
2023-03-13T05:18:21.942Z,99.90
2023-03-13T05:20:52.767Z,99.90
2023-03-13T05:23:23.497Z,99.90
2023-03-13T05:25:54.235Z,99.90
2023-03-13T05:28:27.546Z,99.90
2023-03-13T05:30:58.732Z,99.90
2023-03-13T05:33:29.632Z,99.90
2023-03-13T05:36:00.670Z,99.90
2023-03-13T05:38:31.537Z,99.90
2023-03-13T05:41:02.268Z,99.90
2023-03-13T05:43:35.628Z,99.90
2023-03-13T05:46:06.665Z,99.90
2023-03-13T05:48:37.417Z,99.90
2023-03-13T05:51:08.819Z,99.90
2023-03-13T05:53:39.708Z,99.90
2023-03-13T05:56:10.713Z,99.90
2023-03-13T05:58:43.973Z,99.90
2023-03-13T06:01:16.082Z,99.90
2023-03-13T06:03:46.883Z,99.90
2023-03-13T06:06:17.687Z,99.90
2023-03-13T06:08:48.589Z,99.90
2023-03-13T06:11:19.340Z,99.90
2023-03-13T06:13:54.220Z,99.90
2023-03-13T06:16:25.111Z,99.90
2023-03-13T06:18:55.947Z,99.90
2023-03-13T06:21:26.664Z,99.90
2023-03-13T06:23:58.149Z,99.90
2023-03-13T06:26:28.986Z,99.90
2023-03-13T06:29:02.381Z,99.90
2023-03-13T06:31:33.138Z,99.90
2023-03-13T06:34:04.021Z,99.90
2023-03-13T06:36:34.761Z,99.90
2023-03-13T06:39:05.931Z,99.90
2023-03-13T06:41:36.680Z,99.90
2023-03-13T06:44:12.804Z,99.90
2023-03-13T06:46:43.589Z,99.90
2023-03-13T06:49:14.307Z,99.90
2023-03-13T06:51:47.278Z,99.90
2023-03-13T06:54:20.809Z,99.90
2023-03-13T06:56:51.476Z,99.90
2023-03-13T06:59:24.832Z,99.90
2023-03-13T07:01:55.544Z,99.90
2023-03-13T07:04:26.414Z,99.90
2023-03-13T07:06:57.117Z,99.90
2023-03-13T07:09:27.887Z,99.90
2023-03-13T07:11:59.931Z,99.90
2023-03-13T07:14:33.741Z,99.90
2023-03-13T07:17:04.500Z,99.90
2023-03-13T07:19:35.339Z,99.90
2023-03-13T07:22:06.067Z,99.90
2023-03-13T07:24:36.879Z,99.90
2023-03-13T07:27:08.341Z,99.90
2023-03-13T07:29:46.777Z,99.90
2023-03-13T07:32:17.613Z,99.90
2023-03-13T07:34:48.381Z,99.90
2023-03-13T07:37:20.054Z,99.90
2023-03-13T07:39:53.028Z,99.90
2023-03-13T07:42:23.797Z,99.90
2023-03-13T07:44:57.111Z,99.90
2023-03-13T07:47:27.947Z,99.90
2023-03-13T07:50:00.711Z,99.90
2023-03-13T07:52:32.541Z,99.90
2023-03-13T07:55:03.228Z,99.90
2023-03-13T07:57:34.077Z,99.90
2023-03-13T08:00:13.459Z,99.90
2023-03-13T08:02:44.136Z,99.90
2023-03-13T08:05:14.952Z,99.90
2023-03-13T08:07:47.714Z,99.90
2023-03-13T08:10:18.687Z,99.90
2023-03-13T08:12:49.673Z,99.90
2023-03-13T08:15:26.137Z,99.90
2023-03-13T08:17:59.711Z,99.90
2023-03-13T08:20:30.401Z,99.90
2023-03-13T08:23:01.240Z,99.90
2023-03-13T08:25:32.183Z,99.90
2023-03-13T08:28:03.197Z,99.90
2023-03-13T08:30:38.873Z,99.90
2023-03-13T08:33:09.633Z,99.90
2023-03-13T08:35:40.375Z,99.90
2023-03-13T08:38:11.109Z,99.90
2023-03-13T08:40:41.852Z,98.30
2023-03-13T08:43:12.610Z,98.50
2023-03-13T08:45:45.951Z,96.70
2023-03-13T08:48:16.907Z,96.80
2023-03-13T08:50:47.729Z,95.00
2023-03-13T08:53:18.404Z,96.30
2023-03-13T08:55:55.822Z,94.90
2023-03-13T08:58:26.729Z,94.30
2023-03-13T09:01:04.901Z,93.80
2023-03-13T09:03:36.122Z,94.40
2023-03-13T09:06:08.015Z,94.50
2023-03-13T09:08:39.674Z,94.30
2023-03-13T09:11:12.378Z,95.30
2023-03-13T09:13:48.062Z,94.10
2023-03-13T09:16:23.197Z,95.60
2023-03-13T09:18:54.707Z,95.60
2023-03-13T09:21:27.028Z,95.30
2023-03-13T09:23:58.002Z,94.70
2023-03-13T09:26:29.774Z,92.70
2023-03-13T09:29:03.934Z,92.70
2023-03-13T09:31:38.322Z,92.20
2023-03-13T09:34:09.163Z,90.80
2023-03-13T09:36:39.942Z,89.20
2023-03-13T09:39:10.810Z,86.80
2023-03-13T09:41:46.240Z,84.40
2023-03-13T09:44:23.237Z,82.20
2023-03-13T09:47:06.693Z,77.90
2023-03-13T09:49:40.550Z,77.30
2023-03-13T09:52:18.909Z,77.90
2023-03-13T09:54:53.590Z,74.90
2023-03-13T09:57:34.334Z,83.50
2023-03-13T10:00:11.470Z,88.40
2023-03-13T10:02:48.711Z,87.10
2023-03-13T10:05:23.171Z,87.80
2023-03-13T10:07:58.562Z,90.70
2023-03-13T10:10:41.033Z,93.20
2023-03-13T10:13:19.688Z,92.20
2023-03-13T10:15:54.286Z,90.50
2023-03-13T10:18:29.061Z,87.20
2023-03-13T10:21:03.645Z,87.20
2023-03-13T10:23:46.294Z,82.30
2023-03-13T10:26:19.421Z,81.20
2023-03-13T10:28:50.923Z,82.30
2023-03-13T10:31:29.829Z,78.70
2023-03-13T10:34:13.194Z,78.20
2023-03-13T10:36:46.105Z,75.90
2023-03-13T10:39:19.498Z,71.20
2023-03-13T10:41:51.562Z,65.10
2023-03-13T10:44:24.399Z,62.00
2023-03-13T10:46:55.421Z,60.40
2023-03-13T10:49:36.155Z,54.50
2023-03-13T10:52:08.607Z,54.00
2023-03-13T10:54:42.746Z,51.70
2023-03-13T10:57:31.280Z,50.40
2023-03-13T11:00:07.129Z,49.50
2023-03-13T11:02:45.199Z,47.40
2023-03-13T11:05:39.649Z,46.00
2023-03-13T11:08:24.147Z,46.50
2023-03-13T11:10:59.310Z,46.30
2023-03-13T11:13:38.350Z,45.40
2023-03-13T11:16:22.656Z,44.70
2023-03-13T11:19:19.148Z,43.90
2023-03-13T11:22:17.442Z,42.30
2023-03-13T11:24:56.344Z,40.60
2023-03-13T11:27:33.989Z,37.50
2023-03-13T11:30:23.211Z,37.50
2023-03-13T11:33:00.506Z,34.40
2023-03-13T11:35:45.101Z,32.30
2023-03-13T11:38:23.838Z,30.50
2023-03-13T11:41:05.943Z,29.20
2023-03-13T11:43:54.889Z,29.40
2023-03-13T11:46:36.057Z,29.50
2023-03-13T11:49:31.855Z,29.50
2023-03-13T11:52:12.438Z,29.70
2023-03-13T11:55:07.751Z,30.50
2023-03-13T11:57:47.216Z,27.80
2023-03-13T12:00:26.642Z,27.10
2023-03-13T12:03:04.909Z,27.80
2023-03-13T12:05:43.474Z,26.70
2023-03-13T12:08:18.738Z,26.00
2023-03-13T12:11:03.269Z,26.30
2023-03-13T12:13:38.663Z,26.50
2023-03-13T12:16:15.050Z,25.40
2023-03-13T12:18:48.569Z,25.00
2023-03-13T12:21:25.118Z,22.40
2023-03-13T12:24:05.019Z,21.70
2023-03-13T12:26:45.704Z,23.30
2023-03-13T12:29:24.963Z,21.00
2023-03-13T12:32:02.335Z,19.50
2023-03-13T12:34:38.988Z,20.00
2023-03-13T12:37:15.421Z,19.60
2023-03-13T12:39:52.319Z,19.00
2023-03-13T12:42:42.547Z,19.60
2023-03-13T12:45:19.652Z,18.30
2023-03-13T12:48:21.020Z,16.80
2023-03-13T12:51:12.434Z,16.80
2023-03-13T12:54:25.391Z,16.00
2023-03-13T12:57:18.039Z,16.70
2023-03-13T12:59:57.059Z,17.00
2023-03-13T13:02:31.079Z,17.70
2023-03-13T13:05:04.179Z,17.50
2023-03-13T13:07:37.173Z,18.30
2023-03-13T13:10:25.269Z,17.70
2023-03-13T13:13:22.252Z,17.60
2023-03-13T13:16:03.409Z,16.70
2023-03-13T13:18:35.644Z,16.90
2023-03-13T13:21:26.578Z,16.90
2023-03-13T13:24:18.431Z,17.00
2023-03-13T13:26:55.196Z,14.90
2023-03-13T13:29:58.706Z,15.50
2023-03-13T13:32:54.526Z,16.20
2023-03-13T13:35:28.840Z,14.30
2023-03-13T13:38:29.716Z,14.90
2023-03-13T13:41:06.884Z,15.40
2023-03-13T13:43:41.944Z,16.20
2023-03-13T13:46:28.690Z,16.20
2023-03-13T13:49:18.356Z,16.30
2023-03-13T13:52:19.236Z,15.80
2023-03-13T13:54:58.843Z,16.70
2023-03-13T13:57:32.555Z,16.40
2023-03-13T14:00:19.654Z,16.30
2023-03-13T14:02:53.516Z,16.60
2023-03-13T14:05:27.065Z,16.20
2023-03-13T14:08:10.834Z,16.50
2023-03-13T14:10:44.027Z,15.30
2023-03-13T14:13:18.222Z,15.50
2023-03-13T14:15:52.930Z,15.70
2023-03-13T14:18:26.976Z,15.30
2023-03-13T14:21:03.408Z,15.70
2023-03-13T14:23:42.148Z,16.20
2023-03-13T14:26:17.846Z,16.30
2023-03-13T14:28:51.271Z,15.60
2023-03-13T14:31:33.173Z,16.50
2023-03-13T14:34:06.223Z,16.50
2023-03-13T14:36:49.525Z,16.10
2023-03-13T14:39:22.906Z,16.90
2023-03-13T14:41:53.910Z,16.80
2023-03-13T14:44:27.651Z,16.80
2023-03-13T14:47:07.760Z,16.60
2023-03-13T14:49:40.315Z,16.70
2023-03-13T14:52:21.349Z,16.90
2023-03-13T14:54:57.446Z,16.80
2023-03-13T14:57:29.861Z,17.50
2023-03-13T15:00:31.742Z,17.50
2023-03-13T15:03:32.717Z,17.60
2023-03-13T15:06:19.108Z,17.70
2023-03-13T15:08:51.810Z,18.00
2023-03-13T15:11:28.168Z,17.80
2023-03-13T15:13:59.577Z,18.00
2023-03-13T15:16:31.998Z,18.70
2023-03-13T15:19:05.474Z,18.30
2023-03-13T15:21:37.801Z,18.30
2023-03-13T15:24:16.457Z,19.10
2023-03-13T15:26:49.145Z,19.20
2023-03-13T15:29:20.271Z,19.10
2023-03-13T15:31:51.093Z,18.90
2023-03-13T15:34:25.848Z,18.90
2023-03-13T15:37:02.441Z,18.20
2023-03-13T15:39:33.157Z,18.70
2023-03-13T15:42:04.226Z,18.30
2023-03-13T15:44:35.191Z,19.10
2023-03-13T15:47:05.966Z,16.90
2023-03-13T15:49:39.408Z,15.60
2023-03-13T15:52:17.608Z,14.70
2023-03-13T15:54:50.313Z,15.00
2023-03-13T15:57:25.056Z,14.50
2023-03-13T15:59:56.910Z,14.90
2023-03-13T16:02:28.298Z,14.70
2023-03-13T16:05:01.687Z,14.60
2023-03-13T16:07:32.376Z,15.10
2023-03-13T16:10:03.138Z,14.60
2023-03-13T16:12:33.828Z,14.00
2023-03-13T16:15:05.237Z,13.70
2023-03-13T16:17:36.068Z,12.30
2023-03-13T16:20:16.980Z,13.10
2023-03-13T16:22:47.944Z,11.50
2023-03-13T16:25:22.216Z,12.00
2023-03-13T16:27:55.095Z,12.40
2023-03-13T16:30:28.146Z,12.70
2023-03-13T16:32:59.791Z,12.40
2023-03-13T16:35:33.471Z,12.30
2023-03-13T16:38:06.834Z,12.60
2023-03-13T16:40:38.200Z,12.80
2023-03-13T16:43:08.932Z,13.30
2023-03-13T16:45:39.665Z,13.50
2023-03-13T16:48:16.634Z,14.20
2023-03-13T16:50:50.559Z,14.40
2023-03-13T16:53:21.345Z,15.30
2023-03-13T16:55:53.021Z,16.30
2023-03-13T16:58:24.240Z,16.20
2023-03-13T17:01:05.009Z,16.30
2023-03-13T17:03:36.595Z,16.10
2023-03-13T17:06:13.228Z,15.60
2023-03-13T17:08:44.665Z,15.20
2023-03-13T17:11:18.601Z,14.70
2023-03-13T17:13:51.008Z,14.30
2023-03-13T17:16:23.446Z,13.70
2023-03-13T17:18:56.222Z,13.80
2023-03-13T17:21:33.929Z,13.50
2023-03-13T17:24:07.083Z,13.50
2023-03-13T17:26:39.604Z,14.20
2023-03-13T17:29:15.412Z,14.60
2023-03-13T17:31:46.195Z,15.30
2023-03-13T17:34:16.910Z,16.20
2023-03-13T17:36:50.213Z,18.10
2023-03-13T17:39:21.461Z,18.10
2023-03-13T17:41:53.802Z,19.30
2023-03-13T17:44:24.526Z,19.60
2023-03-13T17:46:55.408Z,20.30
2023-03-13T17:49:26.319Z,20.60
2023-03-13T17:51:59.832Z,20.80
2023-03-13T17:54:30.607Z,20.30
2023-03-13T17:57:01.263Z,20.20
2023-03-13T17:59:31.951Z,20.10
2023-03-13T18:02:05.566Z,20.10
2023-03-13T18:04:38.609Z,20.30
2023-03-13T18:07:19.739Z,20.50
2023-03-13T18:09:50.450Z,20.40
2023-03-13T18:12:21.441Z,20.30
2023-03-13T18:14:52.332Z,19.70
2023-03-13T18:17:26.716Z,19.80
2023-03-13T18:20:00.289Z,20.20
2023-03-13T18:22:33.618Z,20.10
2023-03-13T18:25:04.367Z,20.20
2023-03-13T18:27:35.118Z,20.20
2023-03-13T18:30:17.367Z,20.20
2023-03-13T18:32:48.556Z,19.80
2023-03-13T18:35:20.192Z,20.00
2023-03-13T18:37:55.067Z,20.50
2023-03-13T18:40:28.899Z,20.60
2023-03-13T18:43:00.127Z,20.90
2023-03-13T18:45:34.342Z,20.80
2023-03-13T18:48:14.474Z,20.90
2023-03-13T18:50:46.733Z,21.60
2023-03-13T18:53:22.503Z,22.00
2023-03-13T18:55:53.228Z,21.80
2023-03-13T18:58:23.932Z,22.10
2023-03-13T19:00:54.871Z,22.70
2023-03-13T19:03:25.808Z,22.90
2023-03-13T19:05:56.792Z,23.30
2023-03-13T19:08:30.096Z,23.10
2023-03-13T19:11:00.875Z,23.30
2023-03-13T19:13:38.299Z,23.70
2023-03-13T19:16:17.108Z,23.40
2023-03-13T19:18:49.166Z,23.00
2023-03-13T19:21:24.301Z,23.30
2023-03-13T19:24:00.708Z,23.00
2023-03-13T19:26:35.239Z,23.30
2023-03-13T19:29:06.946Z,22.70
2023-03-13T19:31:40.684Z,22.80
2023-03-13T19:34:12.046Z,22.90
2023-03-13T19:36:44.932Z,23.10
2023-03-13T19:39:20.278Z,22.80
2023-03-13T19:41:51.052Z,22.80
2023-03-13T19:44:24.206Z,23.30
2023-03-13T19:46:56.052Z,23.80
2023-03-13T19:49:32.372Z,23.60
2023-03-13T19:52:07.996Z,23.60
2023-03-13T19:54:41.370Z,24.20
2023-03-13T19:57:13.877Z,23.90
2023-03-13T19:59:44.552Z,24.40
2023-03-13T20:02:16.424Z,24.70
2023-03-13T20:04:47.359Z,25.20
2023-03-13T20:07:18.088Z,25.40
2023-03-13T20:09:51.539Z,25.70
2023-03-13T20:12:22.363Z,25.70
2023-03-13T20:14:53.115Z,25.70
2023-03-13T20:17:24.249Z,25.80
2023-03-13T20:19:55.007Z,25.80
2023-03-13T20:22:25.798Z,25.70
2023-03-13T20:25:02.115Z,26.10
2023-03-13T20:27:33.258Z,26.30
2023-03-13T20:30:04.148Z,26.50
2023-03-13T20:32:35.139Z,26.80
2023-03-13T20:35:12.938Z,26.70
2023-03-13T20:37:43.896Z,26.90
2023-03-13T20:40:17.795Z,27.30
2023-03-13T20:42:48.629Z,27.60
2023-03-13T20:45:19.474Z,28.20
2023-03-13T20:47:53.702Z,27.90
2023-03-13T20:50:24.692Z,28.10
2023-03-13T20:52:57.492Z,28.20
2023-03-13T20:55:34.959Z,28.30
2023-03-13T20:58:08.742Z,28.20
2023-03-13T21:00:42.034Z,28.40
2023-03-13T21:03:14.139Z,28.50
2023-03-13T21:05:45.236Z,28.90
2023-03-13T21:08:15.939Z,28.90
2023-03-13T21:10:49.274Z,28.50
2023-03-13T21:13:19.968Z,28.50
2023-03-13T21:15:50.800Z,28.50
2023-03-13T21:18:21.527Z,28.60
2023-03-13T21:20:52.283Z,28.70
2023-03-13T21:23:23.146Z,28.40
2023-03-13T21:25:59.861Z,28.40
2023-03-13T21:28:31.201Z,28.00
2023-03-13T21:31:01.970Z,28.40
2023-03-13T21:33:32.770Z,28.10
2023-03-13T21:36:03.580Z,28.50
2023-03-13T21:38:34.472Z,28.50
2023-03-13T21:41:10.150Z,28.70
2023-03-13T21:43:42.311Z,28.50
2023-03-13T21:46:14.332Z,28.60
2023-03-13T21:48:47.562Z,29.00
2023-03-13T21:51:18.906Z,29.10
2023-03-13T21:53:49.645Z,28.70
2023-03-13T21:56:23.129Z,29.20
2023-03-13T21:58:54.200Z,29.20
2023-03-13T22:01:24.936Z,29.50
2023-03-13T22:03:55.985Z,29.50
2023-03-13T22:06:26.845Z,29.50
2023-03-13T22:08:57.593Z,29.70
2023-03-13T22:11:31.098Z,29.90
2023-03-13T22:14:01.940Z,30.00
2023-03-13T22:16:32.691Z,30.50
2023-03-13T22:19:03.570Z,30.40
2023-03-13T22:21:34.270Z,31.30
2023-03-13T22:24:05.251Z,31.30
2023-03-13T22:26:38.789Z,31.10
2023-03-13T22:29:09.528Z,31.80
2023-03-13T22:31:42.119Z,32.00
2023-03-13T22:34:12.821Z,32.20
2023-03-13T22:36:43.856Z,32.10
2023-03-13T22:39:14.813Z,33.00
2023-03-13T22:41:48.215Z,33.00
2023-03-13T22:44:26.235Z,33.00
2023-03-13T22:46:56.971Z,33.60
2023-03-13T22:49:28.310Z,33.00
2023-03-13T22:51:59.401Z,33.60
2023-03-13T22:54:31.506Z,34.00
2023-03-13T22:57:04.976Z,32.80
2023-03-13T22:59:36.071Z,33.60
2023-03-13T23:02:06.931Z,32.80
2023-03-13T23:04:37.758Z,32.80
2023-03-13T23:07:08.460Z,32.10
2023-03-13T23:09:39.450Z,32.40
2023-03-13T23:12:13.174Z,32.50
2023-03-13T23:14:43.920Z,32.50
2023-03-13T23:17:14.949Z,32.90
2023-03-13T23:19:45.717Z,33.50
2023-03-13T23:22:18.092Z,33.00
2023-03-13T23:24:49.305Z,32.60
2023-03-13T23:27:22.833Z,33.40
2023-03-13T23:29:54.257Z,33.20
2023-03-13T23:32:25.265Z,33.90
2023-03-13T23:34:56.089Z,33.50
2023-03-13T23:37:26.950Z,33.70
2023-03-13T23:40:00.973Z,33.10
2023-03-13T23:42:37.706Z,33.60
2023-03-13T23:45:09.544Z,34.40
2023-03-13T23:47:42.255Z,33.80
2023-03-13T23:50:14.063Z,32.90
2023-03-13T23:52:45.308Z,33.20
2023-03-13T23:55:18.199Z,32.60
2023-03-13T23:57:53.873Z,32.20
